Portada
METAR-TAF:

METAR-TAF

Aeroports :

Darwin, Austràlia

latitud: 12-24S, longitud: 130-52E, altitud: 31 m

Observació

L'informe es va fer fa 44 minuts, a les 01:00 UTC
Vent 5 kt del Nord
Temperatura 31°C
Humitat 66%
Pressió 1013 hPa
Visibilitat 10 km o més
Escasses núvols a una alçada de 3500 ft

METAR: YPDN 160100Z 35005KT 9999 FEW035 31/24 Q1013 NOSIG

Hora: 11:14 (01:44 UTC)

Pronòstic

L'informe es va fer fa 2 hores i 17 minuts, a les 23:27 UTC
Pronòstic vàlid del 16 a les 00 UTC al 17 a les 06 UTC
Vent 6 kt del Nord/Nord-Oest
Visibilitat 10 km o més
Escasses núvols a una alçada de 1800 ft
A partir de les 16 a les 0200 UTC
Vent 12 kt del Oest/Nord-Oest
Visibilitat 10 km o més
sense núvols per sota de 1500 mi sense presència de cumulonimbus.
A partir de les 16 a les 1500 UTC
Vent 5 kt del Nord
Visibilitat 10 km o més
Escasses núvols a una alçada de 1800 ft

TAF: YPDN 152327Z 1600/1706 33006KT 9999 FEW018 FM160200 29012KT CAVOK FM161500 35005KT 9999 FEW018

Observacions i pronòstics meteorològics de més de 4000 aeroports (METAR i TAF).

Les estacions disponibles són els punts grocs i vermells al mapa.

Posi el ratolí al punt desitjat per veure el nom de l'estació.

Feu clic per veure les observacions i els pronòstics meteorològics.

Per canviar el mapa: feu clic els botons verds amb una creu de color negre per apropar; al botó verd amb un guió per allunyar la imatge; o en les fletxes verdes per a mapes adjacents.


METAR-TAF: